Time;durP1;ratioP1;P1;durP2;ratioP2;P2;SDS_P1;SDS_P2;PMS_P1;PMS_P2;Temp;Humidity;BMP_temperature;BMP_pressure;BME280_temperature;BME280_humidity;BME280_pressure;Samples;Min_cycle;Max_cycle;Signal;HPM_P1;HPM_P2
2022/04/14 00:00:29;;;;;;;;;;;;;;;16.85;63.81;101744.84;1049414;28;618;-59
2022/04/14 00:01:19;;;;;;;;;;;;;;;16.84;63.28;101743.13;1049005;28;708;-60
2022/04/14 00:02:10;;;;;;;;;;;;;;;16.85;63.63;101739.47;1048751;28;1244;-60
2022/04/14 00:03:00;;;;;;;;;;;;;;;16.84;63.67;101737.75;1049082;28;886;-61
2022/04/14 00:03:51;;;;;;;;;;;;;;;16.84;63.85;101745.00;1050096;28;722;-61
2022/04/14 00:04:41;;;;;;;;;;;;;;;16.83;63.70;101736.06;1048830;28;697;-60
2022/04/14 00:05:31;;;;;;;;;;;;;;;16.84;63.70;101742.31;1044994;28;669;-60
2022/04/14 00:06:22;;;;;;;;;;;;;;;16.83;63.36;101741.44;1044571;28;705;-61
2022/04/14 00:07:12;;;;;;;;;;;;;;;16.83;63.75;101741.44;1048894;28;756;-62
2022/04/14 00:08:03;;;;;;;;;;;;;;;16.83;63.57;101743.28;1048829;28;672;-61
2022/04/14 00:08:53;;;;;;;;;;;;;;;16.82;63.88;101739.72;1048893;28;630;-62
2022/04/14 00:09:44;;;;;;;;;;;;;;;16.81;63.98;101738.00;1048820;28;653;-61
2022/04/14 00:10:34;;;;;;;;;;;;;;;16.81;63.51;101732.63;1048343;28;648;-62
2022/04/14 00:11:25;;;;;;;;;;;;;;;16.81;63.53;101731.75;1047681;28;678;-60
2022/04/14 00:12:15;;;;;;;;;;;;;;;16.82;63.72;101733.47;1049579;28;664;-60
2022/04/14 00:13:06;;;;;;;;;;;;;;;16.81;63.39;101727.25;1050206;28;652;-60
2022/04/14 00:13:56;;;;;;;;;;;;;;;16.80;63.33;101725.53;1049562;28;633;-60
2022/04/14 00:14:47;;;;;;;;;;;;;;;16.80;63.54;101730.03;1049449;28;720;-60
2022/04/14 00:15:37;;;;;;;;;;;;;;;16.79;63.48;101726.50;1048787;28;636;-61
2022/04/14 00:16:27;;;;;;;;;;;;;;;16.78;63.66;101724.78;1045073;28;681;-60
2022/04/14 00:17:18;;;;;;;;;;;;;;;16.78;63.91;101724.78;1045755;28;673;-61
2022/04/14 00:18:08;;;;;;;;;;;;;;;16.78;63.59;101726.63;1049429;28;728;-61
2022/04/14 00:18:59;;;;;;;;;;;;;;;16.79;63.92;101723.81;1050080;28;699;-61
2022/04/14 00:19:49;;;;;;;;;;;;;;;16.78;63.69;101722.09;1048860;28;665;-61
2022/04/14 00:20:39;;;;;;;;;;;;;;;16.76;63.49;101721.34;1049459;28;657;-61
2022/04/14 00:21:30;;;;;;;;;;;;;;;16.76;64.04;101713.28;1049511;28;682;-61
2022/04/14 00:22:20;;;;;;;;;;;;;;;16.76;63.63;101721.34;1049672;28;1181;-60
2022/04/14 00:23:11;;;;;;;;;;;;;;;16.77;64.00;101715.00;1047637;28;1097;-60
2022/04/14 00:24:01;;;;;;;;;;;;;;;16.77;63.89;101717.69;1048204;28;1074;-60
2022/04/14 00:24:51;;;;;;;;;;;;;;;16.76;63.05;101721.34;1048562;28;1174;-60
2022/04/14 00:25:42;;;;;;;;;;;;;;;16.75;63.47;101719.63;1047669;28;1114;-61
2022/04/14 00:26:32;;;;;;;;;;;;;;;16.75;63.50;101714.25;1048302;28;1145;-60
2022/04/14 00:27:23;;;;;;;;;;;;;;;16.75;63.65;101721.47;1047930;28;1142;-61
2022/04/14 00:28:13;;;;;;;;;;;;;;;16.75;63.76;101716.06;1048407;28;1162;-60
2022/04/14 00:29:03;;;;;;;;;;;;;;;16.75;63.35;101721.47;1049019;28;1102;-61
2022/04/14 00:29:54;;;;;;;;;;;;;;;16.75;63.76;101722.31;1052707;28;1028;-61
2022/04/14 00:30:44;;;;;;;;;;;;;;;16.75;63.47;101724.16;1054285;28;1936;-61
2022/04/14 00:31:35;;;;;;;;;;;;;;;16.73;63.34;101721.56;1050143;28;724;-61
2022/04/14 00:32:25;;;;;;;;;;;;;;;16.74;63.84;101723.28;1048974;28;646;-61
2022/04/14 00:33:16;;;;;;;;;;;;;;;16.73;63.59;101724.25;1049513;28;1234;-61
2022/04/14 00:34:06;;;;;;;;;;;;;;;16.73;63.50;101716.19;1048942;28;632;-61
2022/04/14 00:34:56;;;;;;;;;;;;;;;16.74;64.05;101717.91;1048876;28;1372;-61
2022/04/14 00:35:47;;;;;;;;;;;;;;;16.73;63.39;101718.88;1048520;28;1187;-61
2022/04/14 00:36:37;;;;;;;;;;;;;;;16.73;63.39;101718.03;1050556;28;710;-62
2022/04/14 00:37:28;;;;;;;;;;;;;;;16.72;63.23;101719.84;1049942;28;1186;-62
2022/04/14 00:38:18;;;;;;;;;;;;;;;16.72;63.70;101717.16;1050060;28;1191;-61
2022/04/14 00:39:11;;;;;;;;;;;;;;;16.72;63.52;101714.47;1049329;28;1107;-62
2022/04/14 00:40:02;;;;;;;;;;;;;;;16.72;63.66;101719.00;1049958;28;1174;-62
2022/04/14 00:40:53;;;;;;;;;;;;;;;16.71;63.26;101718.13;1049724;28;1186;-62
2022/04/14 00:41:44;;;;;;;;;;;;;;;16.72;63.96;101717.16;1049851;28;724;-62
2022/04/14 00:42:34;;;;;;;;;;;;;;;16.71;63.64;101715.44;1048966;28;658;-62
2022/04/14 00:43:25;;;;;;;;;;;;;;;16.71;63.55;101715.44;1050080;28;712;-62
2022/04/14 00:44:15;;;;;;;;;;;;;;;16.71;63.38;101715.44;1048845;28;666;-64
2022/04/14 00:45:06;;;;;;;;;;;;;;;16.71;63.40;101714.59;1048800;28;657;-63
2022/04/14 00:45:57;;;;;;;;;;;;;;;16.70;63.52;101713.72;1048806;28;686;-63
2022/04/14 00:46:47;;;;;;;;;;;;;;;16.69;63.57;101712.00;1048800;28;697;-62
2022/04/14 00:47:38;;;;;;;;;;;;;;;16.70;63.87;101713.72;1048923;28;689;-62
2022/04/14 00:48:28;;;;;;;;;;;;;;;16.70;63.54;101710.19;1048759;28;702;-63
2022/04/14 00:49:20;;;;;;;;;;;;;;;16.70;63.55;101712.88;1048898;28;630;-61
2022/04/14 00:50:12;;;;;;;;;;;;;;;16.72;63.44;101705.53;1049353;28;673;-63
2022/04/14 00:51:03;;;;;;;;;;;;;;;16.74;63.16;101707.13;1048812;28;1894;-62
2022/04/14 00:51:54;;;;;;;;;;;;;;;16.80;63.03;101705.81;1049903;28;1111;-60
2022/04/14 00:52:45;;;;;;;;;;;;;;;16.80;62.58;101700.44;1049943;28;1369;-62
2022/04/14 00:53:37;;;;;;;;;;;;;;;16.79;63.11;101706.78;1048326;28;1195;-62
2022/04/14 00:54:30;;;;;;;;;;;;;;;16.76;63.28;101705.19;1048701;28;1178;-63
2022/04/14 00:55:21;;;;;;;;;;;;;;;16.75;63.68;101708.84;1048688;28;1328;-62
2022/04/14 00:56:11;;;;;;;;;;;;;;;16.73;63.35;101705.41;1049979;28;1146;-62
2022/04/14 00:57:01;;;;;;;;;;;;;;;16.71;63.36;101703.81;1049613;28;1292;-61
2022/04/14 00:57:52;;;;;;;;;;;;;;;16.70;63.25;101702.97;1043633;28;1187;-62
2022/04/14 00:58:42;;;;;;;;;;;;;;;16.69;63.84;101706.63;1045969;28;1163;-62
2022/04/14 00:59:33;;;;;;;;;;;;;;;16.69;63.62;101705.78;1046489;28;1203;-62
2022/04/14 01:00:23;;;;;;;;;;;;;;;16.69;63.81;101705.78;1044652;28;1215;-62
2022/04/14 01:01:14;;;;;;;;;;;;;;;16.67;63.97;101695.13;1043654;28;1155;-59
2022/04/14 01:02:04;;;;;;;;;;;;;;;16.67;64.03;101708.56;1042577;28;1172;-61
2022/04/14 01:02:55;;;;;;;;;;;;;;;16.66;63.54;101702.34;1044397;28;1176;-61
2022/04/14 01:03:45;;;;;;;;;;;;;;;16.66;63.56;101706.84;1043835;28;1231;-62
2022/04/14 01:04:37;;;;;;;;;;;;;;;16.66;63.59;101707.72;1044651;28;1152;-61
2022/04/14 01:05:28;;;;;;;;;;;;;;;16.66;63.47;101702.34;1044232;28;1215;-62
2022/04/14 01:06:20;;;;;;;;;;;;;;;16.66;63.23;101712.25;1047184;28;1235;-61
2022/04/14 01:07:10;;;;;;;;;;;;;;;16.66;63.57;101712.25;1047678;28;1167;-61
2022/04/14 01:08:00;;;;;;;;;;;;;;;16.66;63.52;101712.25;1047248;28;1157;-61
2022/04/14 01:10:00;;;;;;;;;;;;;;;16.64;63.67;101711.53;1048246;28;1163;-62
2022/04/14 01:10:50;;;;;;;;;;;;;;;16.65;64.16;101702.47;1043340;28;1914;-60
2022/04/14 01:11:41;;;;;;;;;;;;;;;16.64;63.78;101709.69;1047728;28;1226;-61
2022/04/14 01:12:31;;;;;;;;;;;;;;;16.63;63.99;101710.66;1044257;28;1191;-61
2022/04/14 01:13:21;;;;;;;;;;;;;;;16.63;63.98;101709.81;1047687;28;1282;-61
2022/04/14 01:14:12;;;;;;;;;;;;;;;16.64;63.56;101719.59;1047357;28;1227;-61
2022/04/14 01:15:02;;;;;;;;;;;;;;;16.63;63.83;101710.66;1049180;28;670;-60
2022/04/14 01:15:53;;;;;;;;;;;;;;;16.64;63.80;101716.91;1045991;28;619;-60
2022/04/14 01:16:43;;;;;;;;;;;;;;;16.63;63.90;101715.19;1045395;28;693;-61
2022/04/14 01:17:34;;;;;;;;;;;;;;;16.61;63.87;101715.28;1045561;28;674;-61
2022/04/14 01:18:24;;;;;;;;;;;;;;;16.62;63.17;101713.44;1045370;28;654;-61
2022/04/14 01:19:14;;;;;;;;;;;;;;;16.62;63.62;101708.06;1046603;28;690;-61
2022/04/14 01:20:05;;;;;;;;;;;;;;;16.62;63.87;101721.50;1045426;28;683;-61
2022/04/14 01:20:55;;;;;;;;;;;;;;;16.62;63.72;101713.44;1045362;28;741;-61
2022/04/14 01:21:49;;;;;;;;;;;;;;;16.61;63.66;101712.59;1045378;28;666;-61
2022/04/14 01:22:40;;;;;;;;;;;;;;;16.61;64.10;101715.28;1047296;28;1486;-61
2022/04/14 01:23:31;;;;;;;;;;;;;;;16.61;63.65;101720.66;1049631;28;697;-61
2022/04/14 01:24:21;;;;;;;;;;;;;;;16.61;64.30;101715.28;1049905;28;1525;-61
2022/04/14 01:25:12;;;;;;;;;;;;;;;16.60;63.71;101723.47;1050182;28;663;-61
2022/04/14 01:26:02;;;;;;;;;;;;;;;16.62;63.66;101718.81;1050072;28;634;-61
2022/04/14 01:26:53;;;;;;;;;;;;;;;16.61;63.69;101720.66;1050127;28;692;-61
2022/04/14 01:27:43;;;;;;;;;;;;;;;16.62;63.54;101721.50;1050101;28;645;-61
2022/04/14 01:28:33;;;;;;;;;;;;;;;16.60;64.12;101720.78;1050083;28;653;-61
2022/04/14 01:29:24;;;;;;;;;;;;;;;16.60;63.75;101724.31;1050124;28;666;-61
2022/04/14 01:30:14;;;;;;;;;;;;;;;16.60;63.55;101723.47;1050086;28;598;-61
2022/04/14 01:31:05;;;;;;;;;;;;;;;16.60;63.36;101718.09;1050036;28;1914;-61
2022/04/14 01:31:55;;;;;;;;;;;;;;;16.60;63.64;101723.47;1050025;28;700;-61
2022/04/14 01:32:45;;;;;;;;;;;;;;;16.59;63.92;101721.75;1050088;28;1076;-61
2022/04/14 01:33:36;;;;;;;;;;;;;;;16.59;63.77;101727.13;1050121;28;665;-61
2022/04/14 01:34:26;;;;;;;;;;;;;;;16.59;63.83;101727.13;1049562;28;590;-61
2022/04/14 01:35:17;;;;;;;;;;;;;;;16.58;63.82;101723.56;1050097;28;676;-61
2022/04/14 01:36:07;;;;;;;;;;;;;;;16.58;63.87;101728.09;1050081;28;640;-60
2022/04/14 01:36:58;;;;;;;;;;;;;;;16.58;63.84;101725.41;1050171;28;641;-61
2022/04/14 01:37:48;;;;;;;;;;;;;;;16.57;64.05;101721.84;1050093;28;684;-60
2022/04/14 01:38:38;;;;;;;;;;;;;;;16.57;64.36;101727.25;1050111;28;637;-60
2022/04/14 01:39:29;;;;;;;;;;;;;;;16.58;63.72;101725.41;1050273;28;646;-60
2022/04/14 01:40:19;;;;;;;;;;;;;;;16.58;63.72;101730.78;1049629;28;649;-60
2022/04/14 01:41:10;;;;;;;;;;;;;;;16.57;63.78;101726.38;1054458;28;776;-60
2022/04/14 01:42:00;;;;;;;;;;;;;;;16.56;63.53;101730.91;1054518;28;756;-60
2022/04/14 01:42:51;;;;;;;;;;;;;;;16.55;63.66;101731.03;1050394;28;556;-60
2022/04/14 01:43:43;;;;;;;;;;;;;;;16.55;63.93;101726.50;1045745;28;641;-62
2022/04/14 01:44:34;;;;;;;;;;;;;;;16.55;64.07;101728.34;1042055;28;685;-62
2022/04/14 01:45:24;;;;;;;;;;;;;;;16.55;64.23;101731.03;1042496;28;637;-62
2022/04/14 01:46:14;;;;;;;;;;;;;;;16.54;63.46;101726.59;1041817;28;621;-62
2022/04/14 01:47:05;;;;;;;;;;;;;;;16.54;63.76;101735.53;1042388;28;628;-62
2022/04/14 01:47:55;;;;;;;;;;;;;;;16.54;63.65;101724.78;1042866;28;1149;-61
2022/04/14 01:48:47;;;;;;;;;;;;;;;16.54;63.81;101729.31;1044782;28;1179;-61
2022/04/14 01:49:37;;;;;;;;;;;;;;;16.54;64.19;101730.16;1049611;28;1172;-61
2022/04/14 01:50:27;;;;;;;;;;;;;;;16.54;63.86;101726.59;1041734;28;630;-61
2022/04/14 01:51:19;;;;;;;;;;;;;;;16.53;63.63;101731.13;1045820;28;629;-61
2022/04/14 01:52:10;;;;;;;;;;;;;;;16.53;63.89;101733.81;1044826;28;613;-61
2022/04/14 01:53:00;;;;;;;;;;;;;;;16.52;63.62;101728.56;1044712;28;643;-61
2022/04/14 01:53:51;;;;;;;;;;;;;;;16.53;63.73;101732.97;1042329;28;657;-61
2022/04/14 01:54:41;;;;;;;;;;;;;;;16.52;63.64;101731.25;1040847;28;658;-60
2022/04/14 01:55:32;;;;;;;;;;;;;;;16.52;63.88;101731.25;1045251;28;739;-61
2022/04/14 01:56:22;;;;;;;;;;;;;;;16.51;63.63;101733.06;1044728;28;920;-61
2022/04/14 01:57:13;;;;;;;;;;;;;;;16.51;63.65;101729.53;1044663;28;1141;-61
2022/04/14 01:58:04;;;;;;;;;;;;;;;16.51;63.79;101743.84;1046038;28;1049;-61
2022/04/14 01:58:55;;;;;;;;;;;;;;;16.50;63.87;101739.44;1045279;28;645;-61
2022/04/14 01:59:45;;;;;;;;;;;;;;;16.50;63.63;101738.56;1045362;28;689;-60
2022/04/14 02:00:36;;;;;;;;;;;;;;;16.50;63.69;101743.94;1046137;28;737;-61
2022/04/14 02:01:26;;;;;;;;;;;;;;;16.49;63.58;101743.09;1046546;28;597;-61
2022/04/14 02:02:17;;;;;;;;;;;;;;;16.49;63.94;101736.84;1045356;28;673;-60
2022/04/14 02:03:07;;;;;;;;;;;;;;;16.49;63.64;101737.72;1045180;28;639;-61
2022/04/14 02:03:58;;;;;;;;;;;;;;;16.49;63.69;101742.22;1046474;28;712;-61
2022/04/14 02:04:48;;;;;;;;;;;;;;;16.48;64.10;101741.38;1045758;28;693;-61
2022/04/14 02:05:39;;;;;;;;;;;;;;;16.48;63.84;101736.00;1045431;28;650;-60
2022/04/14 02:06:29;;;;;;;;;;;;;;;16.48;63.74;101738.69;1044829;28;666;-61
2022/04/14 02:07:20;;;;;;;;;;;;;;;16.48;63.75;101746.75;1044494;28;705;-61
2022/04/14 02:08:10;;;;;;;;;;;;;;;16.48;64.07;101745.94;1046311;28;662;-61
2022/04/14 02:09:01;;;;;;;;;;;;;;;16.47;63.45;101739.69;1042434;28;662;-60
2022/04/14 02:09:51;;;;;;;;;;;;;;;16.47;63.40;101741.53;1042567;28;641;-60
2022/04/14 02:10:41;;;;;;;;;;;;;;;16.47;63.90;101746.91;1044650;28;674;-61
2022/04/14 02:11:32;;;;;;;;;;;;;;;16.47;64.33;101744.22;1046357;28;673;-60
2022/04/14 02:12:22;;;;;;;;;;;;;;;16.46;63.74;101745.19;1046293;28;634;-61
2022/04/14 02:13:13;;;;;;;;;;;;;;;16.45;63.84;101746.16;1046668;28;705;-61
2022/04/14 02:14:03;;;;;;;;;;;;;;;16.45;64.13;101752.41;1045986;28;1649;-61
2022/04/14 02:14:54;;;;;;;;;;;;;;;16.44;63.77;101744.44;1044387;28;666;-61
2022/04/14 02:15:44;;;;;;;;;;;;;;;16.44;63.77;101748.00;1044952;28;689;-61
2022/04/14 02:16:34;;;;;;;;;;;;;;;16.43;63.75;101743.56;1045247;28;722;-61
2022/04/14 02:17:25;;;;;;;;;;;;;;;16.44;63.34;101744.44;1045702;28;657;-61
2022/04/14 02:18:15;;;;;;;;;;;;;;;16.44;63.82;101741.75;1045033;28;650;-61
2022/04/14 02:19:06;;;;;;;;;;;;;;;16.43;63.76;101740.88;1045202;28;669;-61
2022/04/14 02:19:56;;;;;;;;;;;;;;;16.43;63.68;101734.66;1046385;28;669;-61
2022/04/14 02:20:46;;;;;;;;;;;;;;;16.43;63.83;101737.34;1044895;28;642;-61
2022/04/14 02:21:37;;;;;;;;;;;;;;;16.44;63.31;101739.91;1045239;28;626;-61
2022/04/14 02:22:27;;;;;;;;;;;;;;;16.43;63.76;101734.66;1045783;28;689;-61
2022/04/14 02:23:18;;;;;;;;;;;;;;;16.43;63.30;101740.03;1045812;28;682;-61
2022/04/14 02:24:08;;;;;;;;;;;;;;;16.43;63.61;101731.97;1045742;28;665;-60
2022/04/14 02:24:59;;;;;;;;;;;;;;;16.42;63.50;101738.31;1045139;28;681;-61
2022/04/14 02:25:49;;;;;;;;;;;;;;;16.43;63.41;101731.97;1045256;28;656;-60
2022/04/14 02:26:40;;;;;;;;;;;;;;;16.42;63.65;101741.00;1044743;28;674;-60
2022/04/14 02:27:30;;;;;;;;;;;;;;;16.41;63.69;101734.75;1045087;28;654;-60
2022/04/14 02:28:21;;;;;;;;;;;;;;;16.42;63.16;101736.47;1045149;28;706;-60
2022/04/14 02:29:11;;;;;;;;;;;;;;;16.41;63.62;101734.75;1045083;28;649;-60
2022/04/14 02:30:02;;;;;;;;;;;;;;;16.41;63.56;101733.91;1045788;28;664;-60
2022/04/14 02:30:52;;;;;;;;;;;;;;;16.40;63.69;101738.41;1045067;28;1894;-60
2022/04/14 02:31:43;;;;;;;;;;;;;;;16.41;63.67;101739.28;1045274;28;705;-60
2022/04/14 02:32:33;;;;;;;;;;;;;;;16.41;63.43;101736.59;1045261;28;689;-61
2022/04/14 02:33:23;;;;;;;;;;;;;;;16.41;63.49;101739.28;1045126;28;607;-61
2022/04/14 02:34:14;;;;;;;;;;;;;;;16.40;63.72;101737.56;1045318;28;638;-61
2022/04/14 02:35:04;;;;;;;;;;;;;;;16.40;64.20;101746.50;1045688;28;688;-61
2022/04/14 02:35:55;;;;;;;;;;;;;;;16.39;63.62;101742.09;1045642;28;684;-61
2022/04/14 02:36:45;;;;;;;;;;;;;;;16.38;63.67;101744.88;1045227;28;669;-61
2022/04/14 02:37:35;;;;;;;;;;;;;;;16.38;63.66;101734.13;1045238;28;677;-61
2022/04/14 02:38:26;;;;;;;;;;;;;;;16.39;63.29;101743.91;1045417;28;716;-61
2022/04/14 02:39:16;;;;;;;;;;;;;;;16.38;63.71;101737.69;1046544;28;622;-60
2022/04/14 02:40:07;;;;;;;;;;;;;;;16.37;63.90;101732.41;1041920;28;657;-60
2022/04/14 02:40:57;;;;;;;;;;;;;;;16.37;63.43;101732.41;1041876;28;682;-60
2022/04/14 02:41:47;;;;;;;;;;;;;;;16.35;63.61;101735.22;1046103;28;665;-60
2022/04/14 02:42:38;;;;;;;;;;;;;;;16.36;63.62;101738.75;1045728;28;673;-59
2022/04/14 02:43:28;;;;;;;;;;;;;;;16.37;63.66;101737.78;1045584;28;1518;-60
2022/04/14 02:44:19;;;;;;;;;;;;;;;16.37;63.66;101732.41;1046068;28;657;-60
2022/04/14 02:45:09;;;;;;;;;;;;;;;16.35;63.70;101745.97;1045034;28;647;-59
2022/04/14 02:46:00;;;;;;;;;;;;;;;16.37;63.14;101743.16;1045273;28;658;-59
2022/04/14 02:46:50;;;;;;;;;;;;;;;16.36;63.40;101746.84;1045152;28;678;-59
2022/04/14 02:47:40;;;;;;;;;;;;;;;16.34;63.36;101744.25;1046815;28;633;-59
2022/04/14 02:48:31;;;;;;;;;;;;;;;16.35;63.63;101739.72;1045726;28;673;-60
2022/04/14 02:49:22;;;;;;;;;;;;;;;16.33;63.94;101743.38;1045592;28;642;-60
2022/04/14 02:50:13;;;;;;;;;;;;;;;16.35;63.46;101742.41;1046259;28;732;-60
2022/04/14 02:51:03;;;;;;;;;;;;;;;16.32;63.52;101738.97;1045578;28;1890;-60
2022/04/14 02:51:54;;;;;;;;;;;;;;;16.32;63.79;101740.81;1047199;28;650;-60
2022/04/14 02:52:44;;;;;;;;;;;;;;;16.32;63.56;101740.81;1050119;28;685;-60
2022/04/14 02:53:34;;;;;;;;;;;;;;;16.31;63.58;101744.47;1045804;28;770;-60
2022/04/14 02:54:25;;;;;;;;;;;;;;;16.31;63.65;101744.47;1040844;28;630;-61
2022/04/14 02:55:19;;;;;;;;;;;;;;;16.32;63.81;101743.50;1044429;28;631;-60
2022/04/14 02:56:10;;;;;;;;;;;;;;;16.31;63.54;101749.84;1046256;28;658;-60
2022/04/14 02:57:00;;;;;;;;;;;;;;;16.31;63.36;101750.72;1045038;28;1137;-59
2022/04/14 02:57:51;;;;;;;;;;;;;;;16.30;63.55;101751.69;1050408;28;727;-61
2022/04/14 02:58:41;;;;;;;;;;;;;;;16.30;63.68;101757.06;1046064;28;633;-60
2022/04/14 02:59:31;;;;;;;;;;;;;;;16.30;63.48;101753.56;1044814;28;693;-60
2022/04/14 03:00:22;;;;;;;;;;;;;;;16.29;63.75;101741.94;1049134;28;614;-60
2022/04/14 03:01:12;;;;;;;;;;;;;;;16.28;63.76;101750.97;1045922;28;659;-60
2022/04/14 03:02:03;;;;;;;;;;;;;;;16.29;63.58;101752.69;1045368;28;683;-60
2022/04/14 03:02:53;;;;;;;;;;;;;;;16.29;63.45;101752.69;1048674;28;645;-60
2022/04/14 03:03:43;;;;;;;;;;;;;;;16.28;63.56;101750.97;1050454;28;645;-60
2022/04/14 03:04:34;;;;;;;;;;;;;;;16.29;63.45;101738.38;1049352;28;683;-60
2022/04/14 03:05:24;;;;;;;;;;;;;;;16.28;63.87;101740.22;1050316;28;792;-60
2022/04/14 03:06:15;;;;;;;;;;;;;;;16.28;63.63;101744.72;1050347;28;683;-61
2022/04/14 03:07:05;;;;;;;;;;;;;;;16.26;63.86;101744.84;1049709;28;751;-63
2022/04/14 03:07:55;;;;;;;;;;;;;;;16.27;63.51;101745.69;1050358;28;638;-61
2022/04/14 03:08:46;;;;;;;;;;;;;;;16.26;63.71;101747.53;1045925;28;657;-61
2022/04/14 03:09:36;;;;;;;;;;;;;;;16.26;63.37;101752.91;1045309;28;681;-61
2022/04/14 03:10:27;;;;;;;;;;;;;;;16.26;63.65;101746.69;1048743;28;661;-61
2022/04/14 03:11:17;;;;;;;;;;;;;;;16.26;63.55;101757.44;1050250;28;699;-61
2022/04/14 03:12:07;;;;;;;;;;;;;;;16.25;63.81;101756.56;1045840;28;638;-61
2022/04/14 03:12:58;;;;;;;;;;;;;;;16.25;63.47;101751.19;1044777;28;661;-60
2022/04/14 03:13:48;;;;;;;;;;;;;;;16.25;63.55;101756.56;1046441;28;1518;-61
2022/04/14 03:14:39;;;;;;;;;;;;;;;16.25;63.38;101751.19;1045560;28;670;-61
2022/04/14 03:15:29;;;;;;;;;;;;;;;16.23;63.54;101755.81;1045532;28;704;-61
2022/04/14 03:16:19;;;;;;;;;;;;;;;16.24;63.37;101754.00;1045585;28;672;-60
2022/04/14 03:17:10;;;;;;;;;;;;;;;16.23;63.42;101753.13;1044938;28;985;-61
2022/04/14 03:18:00;;;;;;;;;;;;;;;16.24;63.65;101760.22;1044942;28;638;-60
2022/04/14 03:18:51;;;;;;;;;;;;;;;16.24;63.47;101748.63;1045165;28;716;-61
2022/04/14 03:19:41;;;;;;;;;;;;;;;16.22;63.71;101758.63;1045612;28;669;-61
2022/04/14 03:20:31;;;;;;;;;;;;;;;16.22;63.29;101756.78;1045079;28;701;-61
2022/04/14 03:21:22;;;;;;;;;;;;;;;16.22;63.27;101755.94;1045990;28;660;-61
2022/04/14 03:22:12;;;;;;;;;;;;;;;16.22;63.33;101754.09;1044994;28;634;-61
2022/04/14 03:23:03;;;;;;;;;;;;;;;16.22;63.51;101747.88;1045047;28;716;-61
2022/04/14 03:23:53;;;;;;;;;;;;;;;16.21;63.32;101755.06;1045608;28;713;-61
2022/04/14 03:24:43;;;;;;;;;;;;;;;16.21;63.54;101743.47;1045105;28;638;-61
2022/04/14 03:25:34;;;;;;;;;;;;;;;16.21;63.59;101747.00;1044787;28;633;-61
2022/04/14 03:26:24;;;;;;;;;;;;;;;16.21;63.52;101748.84;1045570;28;641;-60
2022/04/14 03:27:15;;;;;;;;;;;;;;;16.20;63.41;101753.34;1045003;28;701;-61
2022/04/14 03:28:05;;;;;;;;;;;;;;;16.20;63.23;101750.66;1046096;28;673;-61
2022/04/14 03:28:55;;;;;;;;;;;;;;;16.20;63.75;101747.13;1045580;28;685;-61
2022/04/14 03:29:46;;;;;;;;;;;;;;;16.20;63.46;101747.97;1044767;28;724;-61
2022/04/14 03:30:36;;;;;;;;;;;;;;;16.20;63.69;101744.44;1044854;28;681;-61
2022/04/14 03:31:27;;;;;;;;;;;;;;;16.19;63.33;101743.56;1045523;28;692;-60
2022/04/14 03:32:17;;;;;;;;;;;;;;;16.19;63.36;101748.94;1045497;28;700;-60
2022/04/14 03:33:08;;;;;;;;;;;;;;;16.19;63.68;101748.94;1045122;28;648;-61
2022/04/14 03:33:58;;;;;;;;;;;;;;;16.19;63.58;101756.16;1045502;28;784;-61
2022/04/14 03:34:48;;;;;;;;;;;;;;;16.18;63.26;101749.91;1044946;28;697;-61
2022/04/14 03:35:39;;;;;;;;;;;;;;;16.17;63.26;101750.88;1045547;28;685;-61
2022/04/14 03:36:29;;;;;;;;;;;;;;;16.18;63.18;101754.44;1044946;28;642;-61
2022/04/14 03:37:20;;;;;;;;;;;;;;;16.18;63.25;101743.69;1044892;28;708;-61
2022/04/14 03:38:10;;;;;;;;;;;;;;;16.17;63.43;101758.97;1045106;28;704;-61
2022/04/14 03:39:00;;;;;;;;;;;;;;;16.16;63.49;101749.16;1045913;28;673;-61
2022/04/14 03:39:51;;;;;;;;;;;;;;;16.15;63.30;101751.97;1045643;28;671;-61
2022/04/14 03:40:41;;;;;;;;;;;;;;;16.15;63.26;101754.66;1044873;28;705;-61
2022/04/14 03:41:32;;;;;;;;;;;;;;;16.15;63.26;101755.53;1045490;28;709;-61
2022/04/14 03:42:22;;;;;;;;;;;;;;;16.16;63.48;101757.25;1045363;28;738;-61
2022/04/14 03:43:13;;;;;;;;;;;;;;;16.16;63.48;101751.00;1045174;28;1511;-61
2022/04/14 03:44:03;;;;;;;;;;;;;;;16.16;63.57;101757.25;1046442;28;1340;-61
2022/04/14 03:44:53;;;;;;;;;;;;;;;16.16;63.38;101756.38;1044384;28;626;-61
2022/04/14 03:45:44;;;;;;;;;;;;;;;16.14;63.37;101759.19;1045344;28;1349;-61
2022/04/14 03:46:34;;;;;;;;;;;;;;;16.13;63.36;101764.66;1045373;28;754;-61
2022/04/14 03:47:25;;;;;;;;;;;;;;;16.12;63.38;101753.06;1045487;28;701;-61
2022/04/14 03:48:15;;;;;;;;;;;;;;;16.14;63.15;101759.19;1045481;28;626;-61
2022/04/14 03:49:06;;;;;;;;;;;;;;;16.12;63.08;101755.75;1045454;28;630;-61
2022/04/14 03:49:56;;;;;;;;;;;;;;;16.13;63.12;101751.22;1045445;28;673;-61
2022/04/14 03:50:47;;;;;;;;;;;;;;;16.12;63.35;101755.75;1047909;28;1200;-61
2022/04/14 03:51:37;;;;;;;;;;;;;;;16.11;63.39;101758.56;1050152;28;798;-61
2022/04/14 03:52:28;;;;;;;;;;;;;;;16.11;63.15;101758.56;1048400;28;650;-61
2022/04/14 03:53:18;;;;;;;;;;;;;;;16.10;63.29;101755.03;1045080;28;641;-61
2022/04/14 03:54:09;;;;;;;;;;;;;;;16.10;63.11;101752.34;1045092;28;697;-61
2022/04/14 03:54:59;;;;;;;;;;;;;;;16.09;63.37;101756.00;1048739;28;686;-62
2022/04/14 03:55:51;;;;;;;;;;;;;;;16.10;63.10;101755.03;1049001;28;646;-61
2022/04/14 03:56:41;;;;;;;;;;;;;;;16.10;63.32;101757.72;1049405;28;677;-63
2022/04/14 03:57:31;;;;;;;;;;;;;;;16.09;63.16;101756.00;1048972;28;614;-61
2022/04/14 03:58:22;;;;;;;;;;;;;;;16.09;63.36;101747.91;1049045;28;554;-61
2022/04/14 03:59:13;;;;;;;;;;;;;;;16.08;63.31;101751.59;1050038;28;570;-61
2022/04/14 04:00:04;;;;;;;;;;;;;;;16.07;63.30;101752.56;1049961;28;676;-62
2022/04/14 04:00:54;;;;;;;;;;;;;;;16.07;63.26;101751.69;1048803;28;739;-61
2022/04/14 04:01:44;;;;;;;;;;;;;;;16.07;63.24;101752.56;1048936;28;665;-61
2022/04/14 04:02:36;;;;;;;;;;;;;;;16.07;63.25;101747.19;1049027;28;736;-61
2022/04/14 04:03:26;;;;;;;;;;;;;;;16.07;63.54;101754.38;1050286;28;693;-61
2022/04/14 04:04:16;;;;;;;;;;;;;;;16.07;63.02;101749.88;1053728;28;613;-62
2022/04/14 04:05:07;;;;;;;;;;;;;;;16.07;63.24;101746.31;1053884;28;667;-61
2022/04/14 04:05:57;;;;;;;;;;;;;;;16.05;63.26;101754.50;1055420;28;684;-61
2022/04/14 04:06:48;;;;;;;;;;;;;;;16.06;63.44;101749.97;1054438;28;647;-62
2022/04/14 04:07:38;;;;;;;;;;;;;;;16.06;63.31;101750.84;1050399;28;680;-62
2022/04/14 04:08:28;;;;;;;;;;;;;;;16.07;63.02;101755.25;1049493;28;634;-62
2022/04/14 04:09:20;;;;;;;;;;;;;;;16.05;63.30;101748.25;1049854;28;658;-62
2022/04/14 04:10:11;;;;;;;;;;;;;;;16.05;63.12;101753.63;1048977;28;661;-62
2022/04/14 04:11:01;;;;;;;;;;;;;;;16.04;63.12;101751.91;1051369;28;1910;-62
2022/04/14 04:11:51;;;;;;;;;;;;;;;16.04;63.32;101758.16;1050276;28;618;-62
2022/04/14 04:12:42;;;;;;;;;;;;;;;16.04;63.20;101755.47;1051121;28;654;-63
2022/04/14 04:13:32;;;;;;;;;;;;;;;16.04;62.74;101747.41;1043804;28;1514;-63
2022/04/14 04:14:23;;;;;;;;;;;;;;;16.04;63.18;101743.84;1047022;28;642;-63
2022/04/14 04:15:13;;;;;;;;;;;;;;;16.04;63.21;101752.78;1046104;28;646;-63
2022/04/14 04:16:04;;;;;;;;;;;;;;;16.03;63.19;101752.88;1043406;28;728;-63
2022/04/14 04:16:54;;;;;;;;;;;;;;;16.03;62.90;101760.94;1045925;28;709;-62
2022/04/14 04:17:46;;;;;;;;;;;;;;;16.02;63.31;101754.72;1046015;28;689;-62
2022/04/14 04:18:37;;;;;;;;;;;;;;;16.03;63.13;101763.63;1045378;28;689;-62
2022/04/14 04:19:27;;;;;;;;;;;;;;;16.02;63.47;101760.09;1046821;28;606;-62
2022/04/14 04:20:18;;;;;;;;;;;;;;;16.02;63.21;101754.72;1047729;28;707;-62
2022/04/14 04:21:08;;;;;;;;;;;;;;;16.02;63.08;101760.09;1046032;28;652;-62
2022/04/14 04:21:59;;;;;;;;;;;;;;;16.01;63.08;101755.69;1046454;28;708;-63
2022/04/14 04:22:49;;;;;;;;;;;;;;;16.01;63.11;101755.69;1046987;28;649;-63
2022/04/14 04:23:40;;;;;;;;;;;;;;;16.01;63.17;101758.38;1046899;28;653;-62
2022/04/14 04:24:30;;;;;;;;;;;;;;;15.99;63.00;101754.94;1045991;28;648;-62
2022/04/14 04:25:20;;;;;;;;;;;;;;;16.00;62.78;101756.66;1046536;28;610;-62
2022/04/14 04:26:11;;;;;;;;;;;;;;;15.99;63.09;101760.31;1046330;28;807;-62
2022/04/14 04:27:01;;;;;;;;;;;;;;;15.99;63.23;101754.94;1046640;28;627;-62